sensor_id;sensor_type;location;lat;lon;timestamp;P1;durP1;ratioP1;P2;durP2;ratioP2
17197;SDS011;8715;51.010;6.812;2023-07-16T00:01:29;959.30;;;880.40;;
17197;SDS011;8715;51.010;6.812;2023-07-16T00:04:14;961.28;;;881.55;;
17197;SDS011;8715;51.010;6.812;2023-07-16T00:06:59;959.20;;;879.80;;
17197;SDS011;8715;51.010;6.812;2023-07-16T00:09:44;961.60;;;882.25;;
17197;SDS011;8715;51.010;6.812;2023-07-16T00:12:29;958.97;;;879.70;;
17197;SDS011;8715;51.010;6.812;2023-07-16T00:15:14;958.15;;;879.35;;
17197;SDS011;8715;51.010;6.812;2023-07-16T00:18:01;958.90;;;879.47;;
17197;SDS011;8715;51.010;6.812;2023-07-16T00:20:46;966.22;;;887.65;;
17197;SDS011;8715;51.010;6.812;2023-07-16T00:23:30;956.63;;;877.63;;
17197;SDS011;8715;51.010;6.812;2023-07-16T00:26:15;956.47;;;877.25;;
17197;SDS011;8715;51.010;6.812;2023-07-16T00:29:00;958.00;;;879.05;;
17197;SDS011;8715;51.010;6.812;2023-07-16T00:31:45;965.63;;;887.13;;
17197;SDS011;8715;51.010;6.812;2023-07-16T00:34:31;967.35;;;888.67;;
17197;SDS011;8715;51.010;6.812;2023-07-16T00:37:16;960.65;;;881.38;;
17197;SDS011;8715;51.010;6.812;2023-07-16T00:40:01;958.55;;;879.25;;
17197;SDS011;8715;51.010;6.812;2023-07-16T00:42:46;959.10;;;879.80;;
17197;SDS011;8715;51.010;6.812;2023-07-16T00:45:31;960.05;;;881.20;;
17197;SDS011;8715;51.010;6.812;2023-07-16T00:48:16;957.45;;;878.58;;
17197;SDS011;8715;51.010;6.812;2023-07-16T00:51:03;957.92;;;878.53;;
17197;SDS011;8715;51.010;6.812;2023-07-16T00:53:49;958.42;;;879.60;;
17197;SDS011;8715;51.010;6.812;2023-07-16T00:56:34;957.85;;;879.22;;
17197;SDS011;8715;51.010;6.812;2023-07-16T00:59:20;959.72;;;880.63;;
17197;SDS011;8715;51.010;6.812;2023-07-16T01:02:05;957.38;;;878.70;;
17197;SDS011;8715;51.010;6.812;2023-07-16T01:04:50;958.38;;;879.38;;
17197;SDS011;8715;51.010;6.812;2023-07-16T01:07:36;957.38;;;878.58;;
17197;SDS011;8715;51.010;6.812;2023-07-16T01:10:21;954.90;;;876.78;;
17197;SDS011;8715;51.010;6.812;2023-07-16T01:13:07;956.80;;;878.30;;
17197;SDS011;8715;51.010;6.812;2023-07-16T01:15:52;956.67;;;878.08;;
17197;SDS011;8715;51.010;6.812;2023-07-16T01:18:37;956.50;;;878.50;;
17197;SDS011;8715;51.010;6.812;2023-07-16T01:21:22;955.67;;;877.67;;
17197;SDS011;8715;51.010;6.812;2023-07-16T01:30:31;956.65;;;879.15;;
17197;SDS011;8715;51.010;6.812;2023-07-16T01:33:16;954.97;;;877.30;;
17197;SDS011;8715;51.010;6.812;2023-07-16T01:36:02;955.72;;;877.55;;
17197;SDS011;8715;51.010;6.812;2023-07-16T01:38:47;957.05;;;879.00;;
17197;SDS011;8715;51.010;6.812;2023-07-16T01:41:32;958.15;;;880.03;;
17197;SDS011;8715;51.010;6.812;2023-07-16T01:44:17;954.60;;;877.17;;
17197;SDS011;8715;51.010;6.812;2023-07-16T01:47:08;954.78;;;877.05;;
17197;SDS011;8715;51.010;6.812;2023-07-16T01:49:53;952.33;;;875.13;;
17197;SDS011;8715;51.010;6.812;2023-07-16T01:52:38;952.10;;;874.63;;
17197;SDS011;8715;51.010;6.812;2023-07-16T01:55:23;954.88;;;877.38;;
17197;SDS011;8715;51.010;6.812;2023-07-16T01:58:08;953.60;;;876.28;;
17197;SDS011;8715;51.010;6.812;2023-07-16T02:00:54;960.45;;;883.97;;
17197;SDS011;8715;51.010;6.812;2023-07-16T02:03:40;963.70;;;886.50;;
17197;SDS011;8715;51.010;6.812;2023-07-16T02:06:25;956.08;;;878.42;;
17197;SDS011;8715;51.010;6.812;2023-07-16T02:09:10;956.85;;;878.90;;
17197;SDS011;8715;51.010;6.812;2023-07-16T02:11:55;953.03;;;875.85;;
17197;SDS011;8715;51.010;6.812;2023-07-16T02:14:41;955.88;;;878.20;;
17197;SDS011;8715;51.010;6.812;2023-07-16T02:17:26;954.78;;;877.40;;
17197;SDS011;8715;51.010;6.812;2023-07-16T02:20:12;955.03;;;878.13;;
17197;SDS011;8715;51.010;6.812;2023-07-16T02:22:57;954.22;;;876.88;;
17197;SDS011;8715;51.010;6.812;2023-07-16T02:25:42;952.67;;;875.92;;
17197;SDS011;8715;51.010;6.812;2023-07-16T02:28:27;956.13;;;878.95;;
17197;SDS011;8715;51.010;6.812;2023-07-16T02:31:12;954.00;;;876.85;;
17197;SDS011;8715;51.010;6.812;2023-07-16T02:33:57;960.35;;;883.83;;
17197;SDS011;8715;51.010;6.812;2023-07-16T02:36:43;951.00;;;874.17;;
17197;SDS011;8715;51.010;6.812;2023-07-16T02:39:28;952.40;;;875.53;;
17197;SDS011;8715;51.010;6.812;2023-07-16T02:42:13;955.97;;;878.85;;
17197;SDS011;8715;51.010;6.812;2023-07-16T02:44:58;949.40;;;872.97;;
17197;SDS011;8715;51.010;6.812;2023-07-16T02:47:43;951.25;;;874.38;;
17197;SDS011;8715;51.010;6.812;2023-07-16T02:50:28;955.30;;;877.90;;
17197;SDS011;8715;51.010;6.812;2023-07-16T02:53:14;951.95;;;875.25;;
17197;SDS011;8715;51.010;6.812;2023-07-16T02:55:59;952.53;;;875.95;;
17197;SDS011;8715;51.010;6.812;2023-07-16T02:58:44;950.45;;;874.17;;
17197;SDS011;8715;51.010;6.812;2023-07-16T03:01:29;962.30;;;885.80;;
17197;SDS011;8715;51.010;6.812;2023-07-16T03:04:14;955.83;;;878.92;;
17197;SDS011;8715;51.010;6.812;2023-07-16T03:06:58;954.38;;;877.13;;
17197;SDS011;8715;51.010;6.812;2023-07-16T03:09:44;952.63;;;876.13;;
17197;SDS011;8715;51.010;6.812;2023-07-16T03:12:30;951.35;;;874.55;;
17197;SDS011;8715;51.010;6.812;2023-07-16T03:15:15;953.95;;;876.90;;
17197;SDS011;8715;51.010;6.812;2023-07-16T03:18:00;949.58;;;873.65;;
17197;SDS011;8715;51.010;6.812;2023-07-16T03:20:45;961.55;;;885.42;;
17197;SDS011;8715;51.010;6.812;2023-07-16T03:23:30;949.63;;;873.10;;
17197;SDS011;8715;51.010;6.812;2023-07-16T03:26:16;952.65;;;875.60;;
17197;SDS011;8715;51.010;6.812;2023-07-16T03:29:01;956.97;;;880.05;;
17197;SDS011;8715;51.010;6.812;2023-07-16T03:31:46;952.22;;;875.67;;
17197;SDS011;8715;51.010;6.812;2023-07-16T03:34:32;952.97;;;876.35;;
17197;SDS011;8715;51.010;6.812;2023-07-16T03:37:16;950.38;;;874.25;;
17197;SDS011;8715;51.010;6.812;2023-07-16T03:40:11;949.88;;;873.90;;
17197;SDS011;8715;51.010;6.812;2023-07-16T03:42:58;948.95;;;872.75;;
17197;SDS011;8715;51.010;6.812;2023-07-16T03:45:42;949.58;;;873.83;;
17197;SDS011;8715;51.010;6.812;2023-07-16T03:48:27;961.60;;;886.22;;
17197;SDS011;8715;51.010;6.812;2023-07-16T03:51:12;948.67;;;873.25;;
17197;SDS011;8715;51.010;6.812;2023-07-16T03:53:57;948.53;;;872.85;;
17197;SDS011;8715;51.010;6.812;2023-07-16T03:56:42;946.88;;;871.55;;
17197;SDS011;8715;51.010;6.812;2023-07-16T03:59:28;943.53;;;868.80;;
17197;SDS011;8715;51.010;6.812;2023-07-16T04:02:13;951.38;;;875.90;;
17197;SDS011;8715;51.010;6.812;2023-07-16T04:04:58;949.88;;;874.05;;
17197;SDS011;8715;51.010;6.812;2023-07-16T04:07:43;955.25;;;878.67;;
17197;SDS011;8715;51.010;6.812;2023-07-16T04:10:28;959.65;;;883.70;;
17197;SDS011;8715;51.010;6.812;2023-07-16T04:13:13;963.40;;;886.45;;
17197;SDS011;8715;51.010;6.812;2023-07-16T04:15:59;966.75;;;888.70;;
17197;SDS011;8715;51.010;6.812;2023-07-16T04:18:44;960.58;;;881.42;;
17197;SDS011;8715;51.010;6.812;2023-07-16T04:21:29;962.75;;;882.25;;
17197;SDS011;8715;51.010;6.812;2023-07-16T04:24:14;977.38;;;895.97;;
17197;SDS011;8715;51.010;6.812;2023-07-16T04:26:59;975.30;;;893.80;;
17197;SDS011;8715;51.010;6.812;2023-07-16T04:29:44;975.80;;;892.08;;
17197;SDS011;8715;51.010;6.812;2023-07-16T04:32:30;977.05;;;892.17;;
17197;SDS011;8715;51.010;6.812;2023-07-16T04:35:15;980.22;;;894.28;;
17197;SDS011;8715;51.010;6.812;2023-07-16T04:38:00;981.35;;;894.40;;
17197;SDS011;8715;51.010;6.812;2023-07-16T04:40:45;985.30;;;897.42;;
17197;SDS011;8715;51.010;6.812;2023-07-16T04:43:30;992.95;;;905.13;;
17197;SDS011;8715;51.010;6.812;2023-07-16T04:46:14;988.20;;;899.55;;
17197;SDS011;8715;51.010;6.812;2023-07-16T04:49:02;988.78;;;899.28;;
17197;SDS011;8715;51.010;6.812;2023-07-16T04:51:47;987.92;;;898.20;;
17197;SDS011;8715;51.010;6.812;2023-07-16T04:54:34;992.75;;;902.08;;
17197;SDS011;8715;51.010;6.812;2023-07-16T04:57:19;1001.42;;;911.03;;
17197;SDS011;8715;51.010;6.812;2023-07-16T05:00:05;996.35;;;904.65;;
17197;SDS011;8715;51.010;6.812;2023-07-16T05:02:50;999.08;;;906.30;;
17197;SDS011;8715;51.010;6.812;2023-07-16T05:05:36;997.25;;;903.90;;
17197;SDS011;8715;51.010;6.812;2023-07-16T05:08:21;1002.08;;;908.25;;
17197;SDS011;8715;51.010;6.812;2023-07-16T05:11:06;1003.35;;;908.78;;
17197;SDS011;8715;51.010;6.812;2023-07-16T05:13:51;1003.08;;;907.58;;
17197;SDS011;8715;51.010;6.812;2023-07-16T05:16:36;1012.50;;;917.42;;
17197;SDS011;8715;51.010;6.812;2023-07-16T05:19:21;1009.92;;;913.25;;
17197;SDS011;8715;51.010;6.812;2023-07-16T05:22:08;1010.95;;;913.22;;
17197;SDS011;8715;51.010;6.812;2023-07-16T05:24:53;1013.05;;;915.20;;
17197;SDS011;8715;51.010;6.812;2023-07-16T05:27:37;1010.92;;;912.80;;
17197;SDS011;8715;51.010;6.812;2023-07-16T05:30:23;1010.70;;;912.75;;
17197;SDS011;8715;51.010;6.812;2023-07-16T05:33:08;1011.95;;;913.90;;
17197;SDS011;8715;51.010;6.812;2023-07-16T05:35:53;1010.15;;;912.13;;
17197;SDS011;8715;51.010;6.812;2023-07-16T05:38:40;1013.88;;;915.35;;
17197;SDS011;8715;51.010;6.812;2023-07-16T05:41:25;1010.20;;;911.30;;
17197;SDS011;8715;51.010;6.812;2023-07-16T05:44:10;1010.30;;;911.63;;
17197;SDS011;8715;51.010;6.812;2023-07-16T05:46:55;1010.38;;;912.10;;
17197;SDS011;8715;51.010;6.812;2023-07-16T05:49:40;1012.30;;;913.30;;
17197;SDS011;8715;51.010;6.812;2023-07-16T05:52:25;1017.33;;;919.15;;
17197;SDS011;8715;51.010;6.812;2023-07-16T05:55:11;1021.25;;;922.17;;
17197;SDS011;8715;51.010;6.812;2023-07-16T05:57:56;1014.80;;;915.15;;
17197;SDS011;8715;51.010;6.812;2023-07-16T06:00:41;1013.38;;;913.78;;
17197;SDS011;8715;51.010;6.812;2023-07-16T06:03:26;1013.95;;;914.53;;
17197;SDS011;8715;51.010;6.812;2023-07-16T06:06:11;1011.75;;;913.05;;
17197;SDS011;8715;51.010;6.812;2023-07-16T06:08:56;1013.25;;;913.88;;
17197;SDS011;8715;51.010;6.812;2023-07-16T06:11:42;1014.95;;;915.20;;
17197;SDS011;8715;51.010;6.812;2023-07-16T06:14:30;1014.05;;;913.88;;
17197;SDS011;8715;51.010;6.812;2023-07-16T06:17:15;1017.83;;;917.28;;
17197;SDS011;8715;51.010;6.812;2023-07-16T06:20:00;1013.92;;;913.90;;
17197;SDS011;8715;51.010;6.812;2023-07-16T06:22:44;1015.40;;;915.13;;
17197;SDS011;8715;51.010;6.812;2023-07-16T06:25:29;1013.85;;;914.30;;
17197;SDS011;8715;51.010;6.812;2023-07-16T06:28:15;1013.70;;;914.42;;
17197;SDS011;8715;51.010;6.812;2023-07-16T06:31:00;1014.42;;;915.47;;
17197;SDS011;8715;51.010;6.812;2023-07-16T06:33:45;1014.22;;;915.28;;
17197;SDS011;8715;51.010;6.812;2023-07-16T06:36:31;1010.47;;;912.28;;
17197;SDS011;8715;51.010;6.812;2023-07-16T06:39:16;1010.72;;;912.60;;
17197;SDS011;8715;51.010;6.812;2023-07-16T06:42:01;1002.05;;;906.33;;
17197;SDS011;8715;51.010;6.812;2023-07-16T06:44:47;999.80;;;905.85;;
17197;SDS011;8715;51.010;6.812;2023-07-16T06:47:32;997.70;;;905.25;;
17197;SDS011;8715;51.010;6.812;2023-07-16T06:50:17;995.33;;;903.50;;
17197;SDS011;8715;51.010;6.812;2023-07-16T06:53:02;990.08;;;899.47;;
17197;SDS011;8715;51.010;6.812;2023-07-16T06:55:47;990.72;;;900.78;;
17197;SDS011;8715;51.010;6.812;2023-07-16T06:58:32;986.60;;;897.70;;
17197;SDS011;8715;51.010;6.812;2023-07-16T07:01:19;985.63;;;897.47;;
17197;SDS011;8715;51.010;6.812;2023-07-16T07:04:04;983.05;;;895.17;;
17197;SDS011;8715;51.010;6.812;2023-07-16T07:06:49;984.63;;;897.13;;
17197;SDS011;8715;51.010;6.812;2023-07-16T07:09:34;990.72;;;904.05;;
17197;SDS011;8715;51.010;6.812;2023-07-16T07:12:19;981.95;;;894.85;;
17197;SDS011;8715;51.010;6.812;2023-07-16T07:15:05;984.03;;;896.63;;
17197;SDS011;8715;51.010;6.812;2023-07-16T07:17:52;983.85;;;896.00;;
17197;SDS011;8715;51.010;6.812;2023-07-16T07:20:37;987.03;;;898.58;;
17197;SDS011;8715;51.010;6.812;2023-07-16T07:23:21;986.55;;;899.00;;
17197;SDS011;8715;51.010;6.812;2023-07-16T07:26:07;983.47;;;896.25;;
17197;SDS011;8715;51.010;6.812;2023-07-16T07:28:52;982.42;;;895.70;;
17197;SDS011;8715;51.010;6.812;2023-07-16T07:31:36;982.70;;;895.92;;
17197;SDS011;8715;51.010;6.812;2023-07-16T07:34:23;981.17;;;894.42;;
17197;SDS011;8715;51.010;6.812;2023-07-16T07:37:07;980.42;;;893.63;;
17197;SDS011;8715;51.010;6.812;2023-07-16T07:39:53;980.75;;;893.97;;
17197;SDS011;8715;51.010;6.812;2023-07-16T07:42:38;984.72;;;897.47;;
17197;SDS011;8715;51.010;6.812;2023-07-16T07:45:23;981.50;;;894.38;;
17197;SDS011;8715;51.010;6.812;2023-07-16T07:48:08;980.53;;;893.70;;
17197;SDS011;8715;51.010;6.812;2023-07-16T07:50:55;981.88;;;894.28;;
17197;SDS011;8715;51.010;6.812;2023-07-16T07:53:39;988.17;;;898.00;;
17197;SDS011;8715;51.010;6.812;2023-07-16T07:56:24;1016.65;;;916.92;;
17197;SDS011;8715;51.010;6.812;2023-07-16T07:59:09;980.83;;;894.75;;
17197;SDS011;8715;51.010;6.812;2023-07-16T08:01:54;979.88;;;894.00;;
17197;SDS011;8715;51.010;6.812;2023-07-16T08:04:39;981.65;;;895.38;;
17197;SDS011;8715;51.010;6.812;2023-07-16T08:07:25;980.15;;;893.72;;
17197;SDS011;8715;51.010;6.812;2023-07-16T08:10:10;980.42;;;894.55;;
17197;SDS011;8715;51.010;6.812;2023-07-16T08:12:55;979.08;;;893.38;;
17197;SDS011;8715;51.010;6.812;2023-07-16T08:15:40;977.42;;;892.22;;
17197;SDS011;8715;51.010;6.812;2023-07-16T08:18:25;974.72;;;889.25;;
17197;SDS011;8715;51.010;6.812;2023-07-16T08:21:09;977.40;;;892.33;;
17197;SDS011;8715;51.010;6.812;2023-07-16T08:24:01;973.67;;;889.00;;
17197;SDS011;8715;51.010;6.812;2023-07-16T08:26:46;978.30;;;893.47;;
17197;SDS011;8715;51.010;6.812;2023-07-16T08:29:31;977.38;;;892.35;;
17197;SDS011;8715;51.010;6.812;2023-07-16T08:32:16;978.00;;;892.65;;
17197;SDS011;8715;51.010;6.812;2023-07-16T08:35:01;979.80;;;894.30;;
17197;SDS011;8715;51.010;6.812;2023-07-16T08:37:46;978.83;;;892.88;;
17197;SDS011;8715;51.010;6.812;2023-07-16T08:40:33;977.60;;;891.55;;
17197;SDS011;8715;51.010;6.812;2023-07-16T08:43:18;979.83;;;893.20;;
17197;SDS011;8715;51.010;6.812;2023-07-16T08:46:03;980.15;;;893.13;;
17197;SDS011;8715;51.010;6.812;2023-07-16T08:48:48;980.38;;;893.20;;
17197;SDS011;8715;51.010;6.812;2023-07-16T08:51:33;988.08;;;901.20;;
17197;SDS011;8715;51.010;6.812;2023-07-16T08:54:18;977.47;;;891.28;;
17197;SDS011;8715;51.010;6.812;2023-07-16T08:57:05;982.25;;;895.55;;
17197;SDS011;8715;51.010;6.812;2023-07-16T08:59:51;979.97;;;893.97;;
17197;SDS011;8715;51.010;6.812;2023-07-16T09:02:36;981.15;;;894.53;;
17197;SDS011;8715;51.010;6.812;2023-07-16T09:05:21;984.78;;;896.95;;
17197;SDS011;8715;51.010;6.812;2023-07-16T09:08:06;983.08;;;895.17;;
17197;SDS011;8715;51.010;6.812;2023-07-16T09:10:53;985.75;;;897.45;;
17197;SDS011;8715;51.010;6.812;2023-07-16T09:13:43;984.70;;;896.47;;
17197;SDS011;8715;51.010;6.812;2023-07-16T09:16:32;985.33;;;897.60;;
17197;SDS011;8715;51.010;6.812;2023-07-16T09:19:17;983.50;;;895.95;;
17197;SDS011;8715;51.010;6.812;2023-07-16T09:22:02;987.05;;;898.60;;
17197;SDS011;8715;51.010;6.812;2023-07-16T09:24:47;984.75;;;897.08;;
17197;SDS011;8715;51.010;6.812;2023-07-16T09:27:32;982.35;;;894.53;;
17197;SDS011;8715;51.010;6.812;2023-07-16T09:30:19;984.10;;;896.42;;
17197;SDS011;8715;51.010;6.812;2023-07-16T09:33:09;980.80;;;893.60;;
17197;SDS011;8715;51.010;6.812;2023-07-16T09:35:54;983.42;;;895.95;;
17197;SDS011;8715;51.010;6.812;2023-07-16T09:38:38;980.63;;;893.45;;
17197;SDS011;8715;51.010;6.812;2023-07-16T09:41:24;991.58;;;904.90;;
17197;SDS011;8715;51.010;6.812;2023-07-16T09:44:09;984.47;;;897.20;;
17197;SDS011;8715;51.010;6.812;2023-07-16T09:46:56;982.33;;;894.78;;
17197;SDS011;8715;51.010;6.812;2023-07-16T09:49:41;984.92;;;897.22;;
17197;SDS011;8715;51.010;6.812;2023-07-16T09:52:27;984.30;;;896.47;;
17197;SDS011;8715;51.010;6.812;2023-07-16T09:55:12;981.78;;;894.58;;
17197;SDS011;8715;51.010;6.812;2023-07-16T09:57:57;985.33;;;897.60;;
17197;SDS011;8715;51.010;6.812;2023-07-16T10:00:43;985.15;;;896.95;;
17197;SDS011;8715;51.010;6.812;2023-07-16T10:03:30;989.63;;;901.03;;
17197;SDS011;8715;51.010;6.812;2023-07-16T10:06:15;987.50;;;898.53;;
17197;SDS011;8715;51.010;6.812;2023-07-16T10:09:00;988.47;;;898.92;;
17197;SDS011;8715;51.010;6.812;2023-07-16T10:11:45;987.83;;;898.25;;
17197;SDS011;8715;51.010;6.812;2023-07-16T10:14:31;996.58;;;907.63;;
17197;SDS011;8715;51.010;6.812;2023-07-16T10:17:16;990.78;;;900.83;;
17197;SDS011;8715;51.010;6.812;2023-07-16T10:20:06;987.97;;;898.50;;
17197;SDS011;8715;51.010;6.812;2023-07-16T10:22:54;987.67;;;898.53;;
17197;SDS011;8715;51.010;6.812;2023-07-16T10:25:39;988.10;;;898.72;;
17197;SDS011;8715;51.010;6.812;2023-07-16T10:28:24;987.72;;;898.45;;
17197;SDS011;8715;51.010;6.812;2023-07-16T10:31:16;988.45;;;899.30;;
17197;SDS011;8715;51.010;6.812;2023-07-16T10:34:02;990.63;;;901.00;;
17197;SDS011;8715;51.010;6.812;2023-07-16T10:36:49;991.85;;;902.00;;
17197;SDS011;8715;51.010;6.812;2023-07-16T10:39:34;987.17;;;897.63;;
17197;SDS011;8715;51.010;6.812;2023-07-16T10:42:19;990.83;;;900.22;;
17197;SDS011;8715;51.010;6.812;2023-07-16T10:45:05;992.85;;;901.97;;
17197;SDS011;8715;51.010;6.812;2023-07-16T10:47:51;993.17;;;901.95;;
17197;SDS011;8715;51.010;6.812;2023-07-16T10:50:36;992.53;;;901.47;;
17197;SDS011;8715;51.010;6.812;2023-07-16T10:53:23;992.67;;;901.83;;
17197;SDS011;8715;51.010;6.812;2023-07-16T10:56:08;993.88;;;902.35;;
17197;SDS011;8715;51.010;6.812;2023-07-16T10:58:53;994.47;;;902.00;;
17197;SDS011;8715;51.010;6.812;2023-07-16T11:01:38;1030.75;;;923.40;;
17197;SDS011;8715;51.010;6.812;2023-07-16T11:04:23;1029.47;;;923.80;;
17197;SDS011;8715;51.010;6.812;2023-07-16T11:07:09;1023.58;;;918.30;;
17197;SDS011;8715;51.010;6.812;2023-07-16T11:09:56;1023.88;;;918.58;;
17197;SDS011;8715;51.010;6.812;2023-07-16T11:12:41;1018.20;;;914.22;;
17197;SDS011;8715;51.010;6.812;2023-07-16T11:15:30;1023.58;;;919.00;;
17197;SDS011;8715;51.010;6.812;2023-07-16T11:18:16;1023.20;;;918.28;;
17197;SDS011;8715;51.010;6.812;2023-07-16T11:21:02;1024.40;;;918.92;;
17197;SDS011;8715;51.010;6.812;2023-07-16T11:23:47;1026.55;;;921.13;;
17197;SDS011;8715;51.010;6.812;2023-07-16T11:26:33;1019.60;;;914.78;;
17197;SDS011;8715;51.010;6.812;2023-07-16T11:29:19;1023.70;;;918.50;;
17197;SDS011;8715;51.010;6.812;2023-07-16T11:32:04;1017.13;;;913.45;;
17197;SDS011;8715;51.010;6.812;2023-07-16T11:34:53;1018.05;;;915.08;;
17197;SDS011;8715;51.010;6.812;2023-07-16T11:37:38;1020.05;;;917.00;;
17197;SDS011;8715;51.010;6.812;2023-07-16T11:40:23;1019.90;;;916.10;;
17197;SDS011;8715;51.010;6.812;2023-07-16T11:43:11;1017.35;;;914.03;;
17197;SDS011;8715;51.010;6.812;2023-07-16T11:45:56;1023.05;;;918.80;;
17197;SDS011;8715;51.010;6.812;2023-07-16T11:48:40;1023.60;;;919.25;;
17197;SDS011;8715;51.010;6.812;2023-07-16T11:51:25;1022.13;;;916.95;;
17197;SDS011;8715;51.010;6.812;2023-07-16T11:54:11;1015.72;;;912.08;;
17197;SDS011;8715;51.010;6.812;2023-07-16T11:56:55;1024.95;;;919.78;;
17197;SDS011;8715;51.010;6.812;2023-07-16T11:59:42;1024.50;;;919.53;;
17197;SDS011;8715;51.010;6.812;2023-07-16T12:02:26;1024.55;;;918.42;;
17197;SDS011;8715;51.010;6.812;2023-07-16T12:05:13;1024.60;;;918.95;;
17197;SDS011;8715;51.010;6.812;2023-07-16T12:07:58;1027.82;;;921.22;;
17197;SDS011;8715;51.010;6.812;2023-07-16T12:10:43;1021.30;;;915.88;;
17197;SDS011;8715;51.010;6.812;2023-07-16T12:13:28;1024.60;;;919.22;;
17197;SDS011;8715;51.010;6.812;2023-07-16T12:16:14;1024.45;;;919.00;;
17197;SDS011;8715;51.010;6.812;2023-07-16T12:18:59;1019.67;;;915.17;;
17197;SDS011;8715;51.010;6.812;2023-07-16T12:21:44;1022.72;;;918.53;;
17197;SDS011;8715;51.010;6.812;2023-07-16T12:24:29;1021.45;;;917.10;;
17197;SDS011;8715;51.010;6.812;2023-07-16T12:27:13;1023.60;;;918.67;;
17197;SDS011;8715;51.010;6.812;2023-07-16T12:29:59;1023.55;;;918.88;;
17197;SDS011;8715;51.010;6.812;2023-07-16T12:32:45;1018.05;;;914.25;;
17197;SDS011;8715;51.010;6.812;2023-07-16T12:35:30;1016.47;;;913.78;;
17197;SDS011;8715;51.010;6.812;2023-07-16T12:38:15;1014.58;;;912.50;;
17197;SDS011;8715;51.010;6.812;2023-07-16T12:41:00;1018.30;;;914.90;;
17197;SDS011;8715;51.010;6.812;2023-07-16T12:43:46;1018.50;;;915.55;;
17197;SDS011;8715;51.010;6.812;2023-07-16T12:46:30;1021.17;;;917.47;;
17197;SDS011;8715;51.010;6.812;2023-07-16T12:49:17;1018.05;;;914.58;;
17197;SDS011;8715;51.010;6.812;2023-07-16T12:52:02;1017.65;;;915.13;;
17197;SDS011;8715;51.010;6.812;2023-07-16T12:54:47;1017.22;;;914.72;;
17197;SDS011;8715;51.010;6.812;2023-07-16T12:57:32;1017.78;;;914.75;;
17197;SDS011;8715;51.010;6.812;2023-07-16T13:00:17;1016.92;;;914.92;;
17197;SDS011;8715;51.010;6.812;2023-07-16T13:03:02;1016.47;;;914.40;;
17197;SDS011;8715;51.010;6.812;2023-07-16T13:05:50;1022.03;;;918.83;;
17197;SDS011;8715;51.010;6.812;2023-07-16T13:08:35;1016.80;;;914.15;;
17197;SDS011;8715;51.010;6.812;2023-07-16T13:11:20;1016.65;;;914.42;;
17197;SDS011;8715;51.010;6.812;2023-07-16T13:14:04;1022.10;;;920.08;;
17197;SDS011;8715;51.010;6.812;2023-07-16T13:16:49;1016.80;;;914.40;;
17197;SDS011;8715;51.010;6.812;2023-07-16T13:19:34;1014.38;;;913.47;;
17197;SDS011;8715;51.010;6.812;2023-07-16T13:22:21;1015.88;;;914.60;;
17197;SDS011;8715;51.010;6.812;2023-07-16T13:25:06;1017.25;;;915.58;;
17197;SDS011;8715;51.010;6.812;2023-07-16T13:27:51;1017.17;;;914.30;;
17197;SDS011;8715;51.010;6.812;2023-07-16T13:30:36;1021.95;;;917.67;;
17197;SDS011;8715;51.010;6.812;2023-07-16T13:33:21;1024.50;;;919.38;;
17197;SDS011;8715;51.010;6.812;2023-07-16T13:36:07;1029.50;;;925.88;;
17197;SDS011;8715;51.010;6.812;2023-07-16T13:38:53;1023.30;;;918.65;;
17197;SDS011;8715;51.010;6.812;2023-07-16T13:41:38;1023.05;;;918.40;;
17197;SDS011;8715;51.010;6.812;2023-07-16T13:44:23;1023.20;;;919.10;;
17197;SDS011;8715;51.010;6.812;2023-07-16T13:47:08;1019.55;;;916.15;;
17197;SDS011;8715;51.010;6.812;2023-07-16T13:49:53;1019.00;;;916.33;;
17197;SDS011;8715;51.010;6.812;2023-07-16T13:52:38;1019.95;;;916.97;;
17197;SDS011;8715;51.010;6.812;2023-07-16T13:55:24;1016.83;;;914.05;;
17197;SDS011;8715;51.010;6.812;2023-07-16T13:58:09;1023.13;;;919.65;;
17197;SDS011;8715;51.010;6.812;2023-07-16T14:00:54;1020.00;;;916.65;;
17197;SDS011;8715;51.010;6.812;2023-07-16T14:03:39;1018.70;;;915.60;;
17197;SDS011;8715;51.010;6.812;2023-07-16T14:06:24;1019.95;;;916.50;;
17197;SDS011;8715;51.010;6.812;2023-07-16T14:09:09;1017.38;;;914.42;;
17197;SDS011;8715;51.010;6.812;2023-07-16T14:11:55;1018.35;;;915.28;;
17197;SDS011;8715;51.010;6.812;2023-07-16T14:14:40;1017.60;;;914.55;;
17197;SDS011;8715;51.010;6.812;2023-07-16T14:17:25;1016.88;;;914.67;;
17197;SDS011;8715;51.010;6.812;2023-07-16T14:20:10;1023.20;;;922.20;;
17197;SDS011;8715;51.010;6.812;2023-07-16T14:22:55;1015.53;;;913.92;;
17197;SDS011;8715;51.010;6.812;2023-07-16T14:25:40;1021.17;;;920.28;;
17197;SDS011;8715;51.010;6.812;2023-07-16T14:28:27;1014.47;;;912.80;;
17197;SDS011;8715;51.010;6.812;2023-07-16T14:31:12;1015.63;;;914.20;;
17197;SDS011;8715;51.010;6.812;2023-07-16T14:33:57;1013.85;;;912.40;;
17197;SDS011;8715;51.010;6.812;2023-07-16T14:36:42;1015.85;;;913.97;;
17197;SDS011;8715;51.010;6.812;2023-07-16T14:39:27;1022.10;;;920.33;;
17197;SDS011;8715;51.010;6.812;2023-07-16T14:42:12;1016.15;;;914.30;;
17197;SDS011;8715;51.010;6.812;2023-07-16T14:44:59;1015.42;;;913.88;;
17197;SDS011;8715;51.010;6.812;2023-07-16T14:47:44;1015.88;;;914.17;;
17197;SDS011;8715;51.010;6.812;2023-07-16T14:50:29;1013.38;;;911.67;;
17197;SDS011;8715;51.010;6.812;2023-07-16T14:53:13;1014.63;;;913.05;;
17197;SDS011;8715;51.010;6.812;2023-07-16T14:55:58;1016.45;;;915.58;;
17197;SDS011;8715;51.010;6.812;2023-07-16T14:58:43;1015.55;;;914.38;;
17197;SDS011;8715;51.010;6.812;2023-07-16T15:01:30;1017.08;;;915.00;;
17197;SDS011;8715;51.010;6.812;2023-07-16T15:04:15;1015.90;;;914.05;;
17197;SDS011;8715;51.010;6.812;2023-07-16T15:07:00;1016.72;;;914.95;;
17197;SDS011;8715;51.010;6.812;2023-07-16T15:09:45;1024.22;;;922.70;;
17197;SDS011;8715;51.010;6.812;2023-07-16T15:12:30;1015.75;;;913.60;;
17197;SDS011;8715;51.010;6.812;2023-07-16T15:15:16;1016.22;;;914.40;;
17197;SDS011;8715;51.010;6.812;2023-07-16T15:18:03;1017.60;;;915.40;;
17197;SDS011;8715;51.010;6.812;2023-07-16T15:20:48;1017.28;;;915.72;;
17197;SDS011;8715;51.010;6.812;2023-07-16T15:23:33;1012.53;;;911.47;;
17197;SDS011;8715;51.010;6.812;2023-07-16T15:26:17;1015.88;;;914.72;;
17197;SDS011;8715;51.010;6.812;2023-07-16T15:29:02;1017.17;;;915.55;;
17197;SDS011;8715;51.010;6.812;2023-07-16T15:31:47;1019.15;;;917.05;;
17197;SDS011;8715;51.010;6.812;2023-07-16T15:34:34;1015.03;;;913.65;;
17197;SDS011;8715;51.010;6.812;2023-07-16T15:37:19;1015.80;;;914.00;;
17197;SDS011;8715;51.010;6.812;2023-07-16T15:40:11;1017.40;;;915.00;;
17197;SDS011;8715;51.010;6.812;2023-07-16T15:42:57;1021.75;;;920.45;;
17197;SDS011;8715;51.010;6.812;2023-07-16T15:45:42;1016.72;;;914.63;;
17197;SDS011;8715;51.010;6.812;2023-07-16T15:48:27;1014.83;;;913.35;;
17197;SDS011;8715;51.010;6.812;2023-07-16T15:51:14;1012.30;;;911.35;;
17197;SDS011;8715;51.010;6.812;2023-07-16T15:53:59;1016.28;;;914.47;;